CheckWX is a tool to help pilots better visualize weather data.  It is not intended as a substitute for an official pre-flight weather briefing.

14:02:36 UTC

KFOZ METAR
Bigfork Municipal Airport
Bigfork, Minnesota, USA
Current

10 mins ago

KFOZ 261353Z AUTO 31003G14KT 10SM SCT110 03/M03 A3006 RMK AO2
Observed
Apr-26 @ 13:53 UTC
Wind
  • 310° at 3 KTS
  • Gusting to 14 KTS
Visibility
10 SM
Flight Rules
VFR
Cloud Levels
  • Scattered at 11,000' AGL
Temperature
C / 37°F
Dewpoint
-3°C / 27°F
Humidity
65%
Altimeter
30.06" Hg
Pressure
1017.92 hPa
Previous

29 mins ago

KFOZ 261334Z AUTO 31006KT 10SM SCT110 03/M03 A3006 RMK AO2
Observed
Apr-26 @ 13:34 UTC
Wind
  • 310° at 6 KTS
Visibility
10 SM
Flight Rules
VFR
Cloud Levels
  • Scattered at 11,000' AGL
Temperature
C / 37°F
Dewpoint
-3°C / 27°F
Humidity
65%
Altimeter
30.06" Hg
Pressure
1017.92 hPa
Previous

50 mins ago

KFOZ 261313Z AUTO 32004KT 10SM SCT110 03/M03 A3006 RMK AO2
Observed
Apr-26 @ 13:13 UTC
Wind
  • 320° at 4 KTS
Visibility
10 SM
Flight Rules
VFR
Cloud Levels
  • Scattered at 11,000' AGL
Temperature
C / 37°F
Dewpoint
-3°C / 27°F
Humidity
65%
Altimeter
30.06" Hg
Pressure
1017.92 hPa